sensor_id;sensor_type;location;lat;lon;timestamp;P1;durP1;ratioP1;P2;durP2;ratioP2
52542;SDS011;38449;52.696;6.186;2023-03-23T00:00:30;8.48;;;6.45;;
52542;SDS011;38449;52.696;6.186;2023-03-23T00:02:57;8.10;;;5.80;;
52542;SDS011;38449;52.696;6.186;2023-03-23T00:05:23;10.27;;;6.55;;
52542;SDS011;38449;52.696;6.186;2023-03-23T00:07:50;7.47;;;5.57;;
52542;SDS011;38449;52.696;6.186;2023-03-23T00:10:17;8.02;;;5.80;;
52542;SDS011;38449;52.696;6.186;2023-03-23T00:12:44;10.88;;;6.70;;
52542;SDS011;38449;52.696;6.186;2023-03-23T00:15:11;8.23;;;5.68;;
52542;SDS011;38449;52.696;6.186;2023-03-23T00:17:38;7.65;;;5.75;;
52542;SDS011;38449;52.696;6.186;2023-03-23T00:20:09;8.43;;;5.95;;
52542;SDS011;38449;52.696;6.186;2023-03-23T00:22:38;6.82;;;5.03;;
52542;SDS011;38449;52.696;6.186;2023-03-23T00:25:05;8.80;;;5.78;;
52542;SDS011;38449;52.696;6.186;2023-03-23T00:27:31;7.88;;;5.30;;
52542;SDS011;38449;52.696;6.186;2023-03-23T00:29:58;8.73;;;4.70;;
52542;SDS011;38449;52.696;6.186;2023-03-23T00:32:25;7.80;;;5.38;;
52542;SDS011;38449;52.696;6.186;2023-03-23T00:34:54;7.30;;;5.00;;
52542;SDS011;38449;52.696;6.186;2023-03-23T00:37:22;7.95;;;4.68;;
52542;SDS011;38449;52.696;6.186;2023-03-23T00:39:48;7.95;;;5.10;;
52542;SDS011;38449;52.696;6.186;2023-03-23T00:42:17;8.73;;;4.70;;
52542;SDS011;38449;52.696;6.186;2023-03-23T00:44:43;7.57;;;4.45;;
52542;SDS011;38449;52.696;6.186;2023-03-23T00:47:11;9.30;;;4.63;;
52542;SDS011;38449;52.696;6.186;2023-03-23T00:49:38;6.88;;;4.50;;
52542;SDS011;38449;52.696;6.186;2023-03-23T00:52:05;6.90;;;4.45;;
52542;SDS011;38449;52.696;6.186;2023-03-23T00:54:32;9.02;;;4.57;;
52542;SDS011;38449;52.696;6.186;2023-03-23T00:57:01;9.63;;;4.85;;
52542;SDS011;38449;52.696;6.186;2023-03-23T00:59:35;7.63;;;4.97;;
52542;SDS011;38449;52.696;6.186;2023-03-23T01:02:01;9.07;;;4.65;;
52542;SDS011;38449;52.696;6.186;2023-03-23T01:04:32;7.32;;;4.35;;
52542;SDS011;38449;52.696;6.186;2023-03-23T01:07:04;5.53;;;4.03;;
52542;SDS011;38449;52.696;6.186;2023-03-23T01:09:30;5.72;;;3.80;;
52542;SDS011;38449;52.696;6.186;2023-03-23T01:11:58;6.65;;;4.18;;
52542;SDS011;38449;52.696;6.186;2023-03-23T01:14:24;7.38;;;5.07;;
52542;SDS011;38449;52.696;6.186;2023-03-23T01:16:52;7.18;;;3.90;;
52542;SDS011;38449;52.696;6.186;2023-03-23T01:19:25;7.32;;;4.43;;
52542;SDS011;38449;52.696;6.186;2023-03-23T01:21:51;9.40;;;4.38;;
52542;SDS011;38449;52.696;6.186;2023-03-23T01:24:19;7.28;;;4.65;;
52542;SDS011;38449;52.696;6.186;2023-03-23T01:26:47;7.13;;;4.40;;
52542;SDS011;38449;52.696;6.186;2023-03-23T01:29:13;8.35;;;4.20;;
52542;SDS011;38449;52.696;6.186;2023-03-23T01:31:39;7.90;;;4.25;;
52542;SDS011;38449;52.696;6.186;2023-03-23T01:34:06;6.57;;;4.38;;
52542;SDS011;38449;52.696;6.186;2023-03-23T01:36:32;5.43;;;4.28;;
52542;SDS011;38449;52.696;6.186;2023-03-23T01:39:01;5.30;;;3.53;;
52542;SDS011;38449;52.696;6.186;2023-03-23T01:41:30;7.35;;;3.78;;
52542;SDS011;38449;52.696;6.186;2023-03-23T01:46:33;6.90;;;4.40;;
52542;SDS011;38449;52.696;6.186;2023-03-23T01:49:06;5.30;;;3.90;;
52542;SDS011;38449;52.696;6.186;2023-03-23T01:51:37;7.53;;;3.90;;
52542;SDS011;38449;52.696;6.186;2023-03-23T01:54:09;5.25;;;3.70;;
52542;SDS011;38449;52.696;6.186;2023-03-23T01:56:59;5.85;;;4.15;;
52542;SDS011;38449;52.696;6.186;2023-03-23T01:59:29;7.97;;;3.70;;
52542;SDS011;38449;52.696;6.186;2023-03-23T02:01:57;5.47;;;3.70;;
52542;SDS011;38449;52.696;6.186;2023-03-23T02:04:26;5.30;;;3.58;;
52542;SDS011;38449;52.696;6.186;2023-03-23T02:06:54;6.00;;;3.08;;
52542;SDS011;38449;52.696;6.186;2023-03-23T02:09:26;6.03;;;3.50;;
52542;SDS011;38449;52.696;6.186;2023-03-23T02:11:53;7.10;;;3.30;;
52542;SDS011;38449;52.696;6.186;2023-03-23T02:14:20;5.90;;;3.70;;
52542;SDS011;38449;52.696;6.186;2023-03-23T02:16:50;9.32;;;3.42;;
52542;SDS011;38449;52.696;6.186;2023-03-23T02:19:32;6.18;;;3.10;;
52542;SDS011;38449;52.696;6.186;2023-03-23T02:27:59;6.47;;;3.22;;
52542;SDS011;38449;52.696;6.186;2023-03-23T02:30:59;6.00;;;3.45;;
52542;SDS011;38449;52.696;6.186;2023-03-23T02:33:58;5.03;;;3.30;;
52542;SDS011;38449;52.696;6.186;2023-03-23T02:39:03;6.00;;;3.28;;
52542;SDS011;38449;52.696;6.186;2023-03-23T02:41:49;4.53;;;2.95;;
52542;SDS011;38449;52.696;6.186;2023-03-23T02:44:44;4.97;;;3.05;;
52542;SDS011;38449;52.696;6.186;2023-03-23T02:47:14;4.97;;;3.20;;
52542;SDS011;38449;52.696;6.186;2023-03-23T02:49:47;5.13;;;3.10;;
52542;SDS011;38449;52.696;6.186;2023-03-23T02:52:21;4.78;;;3.10;;
52542;SDS011;38449;52.696;6.186;2023-03-23T02:54:51;4.60;;;2.75;;
52542;SDS011;38449;52.696;6.186;2023-03-23T02:57:19;3.97;;;2.53;;
52542;SDS011;38449;52.696;6.186;2023-03-23T02:59:46;5.25;;;3.00;;
52542;SDS011;38449;52.696;6.186;2023-03-23T03:02:14;5.90;;;3.05;;
52542;SDS011;38449;52.696;6.186;2023-03-23T03:05:10;5.20;;;3.15;;
52542;SDS011;38449;52.696;6.186;2023-03-23T03:08:08;5.50;;;3.33;;
52542;SDS011;38449;52.696;6.186;2023-03-23T03:10:44;5.22;;;3.40;;
52542;SDS011;38449;52.696;6.186;2023-03-23T03:16:08;6.40;;;3.47;;
52542;SDS011;38449;52.696;6.186;2023-03-23T03:21:21;6.35;;;3.17;;
52542;SDS011;38449;52.696;6.186;2023-03-23T03:23:51;5.45;;;3.60;;
52542;SDS011;38449;52.696;6.186;2023-03-23T03:26:20;5.53;;;3.40;;
52542;SDS011;38449;52.696;6.186;2023-03-23T03:28:52;5.40;;;3.28;;
52542;SDS011;38449;52.696;6.186;2023-03-23T03:31:27;6.13;;;3.17;;
52542;SDS011;38449;52.696;6.186;2023-03-23T03:33:56;4.63;;;3.20;;
52542;SDS011;38449;52.696;6.186;2023-03-23T03:36:24;5.50;;;3.45;;
52542;SDS011;38449;52.696;6.186;2023-03-23T03:39:02;5.68;;;3.85;;
52542;SDS011;38449;52.696;6.186;2023-03-23T03:41:31;5.78;;;3.70;;
52542;SDS011;38449;52.696;6.186;2023-03-23T03:43:57;5.45;;;3.30;;
52542;SDS011;38449;52.696;6.186;2023-03-23T03:46:24;5.60;;;3.90;;
52542;SDS011;38449;52.696;6.186;2023-03-23T03:48:52;8.52;;;3.70;;
52542;SDS011;38449;52.696;6.186;2023-03-23T03:51:19;7.70;;;3.72;;
52542;SDS011;38449;52.696;6.186;2023-03-23T03:53:46;6.03;;;3.90;;
52542;SDS011;38449;52.696;6.186;2023-03-23T03:56:12;6.38;;;3.72;;
52542;SDS011;38449;52.696;6.186;2023-03-23T03:58:39;6.55;;;3.80;;
52542;SDS011;38449;52.696;6.186;2023-03-23T04:01:10;9.60;;;3.90;;
52542;SDS011;38449;52.696;6.186;2023-03-23T04:03:39;4.80;;;3.70;;
52542;SDS011;38449;52.696;6.186;2023-03-23T04:06:06;7.53;;;4.00;;
52542;SDS011;38449;52.696;6.186;2023-03-23T04:08:34;6.65;;;4.85;;
52542;SDS011;38449;52.696;6.186;2023-03-23T04:11:01;6.70;;;3.97;;
52542;SDS011;38449;52.696;6.186;2023-03-23T04:13:27;5.97;;;3.67;;
52542;SDS011;38449;52.696;6.186;2023-03-23T04:15:54;7.63;;;4.30;;
52542;SDS011;38449;52.696;6.186;2023-03-23T04:18:20;6.30;;;4.65;;
52542;SDS011;38449;52.696;6.186;2023-03-23T04:20:47;8.05;;;4.15;;
52542;SDS011;38449;52.696;6.186;2023-03-23T04:23:15;5.63;;;3.50;;
52542;SDS011;38449;52.696;6.186;2023-03-23T04:25:50;6.50;;;3.85;;
52542;SDS011;38449;52.696;6.186;2023-03-23T04:28:19;5.07;;;3.65;;
52542;SDS011;38449;52.696;6.186;2023-03-23T04:30:49;8.40;;;3.60;;
52542;SDS011;38449;52.696;6.186;2023-03-23T04:33:20;9.57;;;3.97;;
52542;SDS011;38449;52.696;6.186;2023-03-23T04:35:51;7.05;;;3.95;;
52542;SDS011;38449;52.696;6.186;2023-03-23T04:38:26;7.93;;;3.83;;
52542;SDS011;38449;52.696;6.186;2023-03-23T04:40:53;6.90;;;3.92;;
52542;SDS011;38449;52.696;6.186;2023-03-23T04:43:20;7.88;;;4.60;;
52542;SDS011;38449;52.696;6.186;2023-03-23T04:45:53;6.85;;;2.83;;
52542;SDS011;38449;52.696;6.186;2023-03-23T04:48:26;6.13;;;3.90;;
52542;SDS011;38449;52.696;6.186;2023-03-23T04:50:53;6.72;;;3.13;;
52542;SDS011;38449;52.696;6.186;2023-03-23T04:53:20;7.85;;;3.85;;
52542;SDS011;38449;52.696;6.186;2023-03-23T04:55:47;5.60;;;3.00;;
52542;SDS011;38449;52.696;6.186;2023-03-23T04:58:15;5.88;;;2.90;;
52542;SDS011;38449;52.696;6.186;2023-03-23T05:00:50;6.43;;;3.40;;
52542;SDS011;38449;52.696;6.186;2023-03-23T05:03:17;5.13;;;2.50;;
52542;SDS011;38449;52.696;6.186;2023-03-23T05:05:45;4.65;;;2.60;;
52542;SDS011;38449;52.696;6.186;2023-03-23T05:08:13;7.85;;;2.63;;
52542;SDS011;38449;52.696;6.186;2023-03-23T05:10:39;6.80;;;2.50;;
52542;SDS011;38449;52.696;6.186;2023-03-23T05:13:06;5.72;;;2.65;;
52542;SDS011;38449;52.696;6.186;2023-03-23T05:15:32;9.70;;;2.80;;
52542;SDS011;38449;52.696;6.186;2023-03-23T05:18:01;5.63;;;2.80;;
52542;SDS011;38449;52.696;6.186;2023-03-23T05:20:27;6.25;;;2.83;;
52542;SDS011;38449;52.696;6.186;2023-03-23T05:22:54;7.20;;;3.78;;
52542;SDS011;38449;52.696;6.186;2023-03-23T05:25:22;9.77;;;2.85;;
52542;SDS011;38449;52.696;6.186;2023-03-23T05:27:48;7.20;;;3.13;;
52542;SDS011;38449;52.696;6.186;2023-03-23T05:30:18;5.50;;;2.42;;
52542;SDS011;38449;52.696;6.186;2023-03-23T05:32:47;6.55;;;3.58;;
52542;SDS011;38449;52.696;6.186;2023-03-23T05:35:16;7.07;;;2.45;;
52542;SDS011;38449;52.696;6.186;2023-03-23T05:37:44;4.68;;;2.33;;
52542;SDS011;38449;52.696;6.186;2023-03-23T05:40:10;5.25;;;2.45;;
52542;SDS011;38449;52.696;6.186;2023-03-23T05:42:47;5.88;;;2.55;;
52542;SDS011;38449;52.696;6.186;2023-03-23T05:45:13;4.93;;;2.75;;
52542;SDS011;38449;52.696;6.186;2023-03-23T05:47:42;6.55;;;2.30;;
52542;SDS011;38449;52.696;6.186;2023-03-23T05:50:08;6.53;;;2.20;;
52542;SDS011;38449;52.696;6.186;2023-03-23T05:52:36;4.30;;;2.40;;
52542;SDS011;38449;52.696;6.186;2023-03-23T05:55:03;4.38;;;2.38;;
52542;SDS011;38449;52.696;6.186;2023-03-23T05:57:31;6.70;;;3.03;;
52542;SDS011;38449;52.696;6.186;2023-03-23T05:59:58;4.72;;;2.30;;
52542;SDS011;38449;52.696;6.186;2023-03-23T06:02:25;5.28;;;2.25;;
52542;SDS011;38449;52.696;6.186;2023-03-23T06:04:55;6.50;;;2.47;;
52542;SDS011;38449;52.696;6.186;2023-03-23T06:07:29;5.38;;;2.60;;
52542;SDS011;38449;52.696;6.186;2023-03-23T06:09:56;4.63;;;2.30;;
52542;SDS011;38449;52.696;6.186;2023-03-23T06:12:23;7.55;;;2.80;;
52542;SDS011;38449;52.696;6.186;2023-03-23T06:14:50;9.55;;;3.20;;
52542;SDS011;38449;52.696;6.186;2023-03-23T06:17:17;6.20;;;2.40;;
52542;SDS011;38449;52.696;6.186;2023-03-23T06:19:43;7.10;;;3.50;;
52542;SDS011;38449;52.696;6.186;2023-03-23T06:22:13;8.48;;;2.85;;
52542;SDS011;38449;52.696;6.186;2023-03-23T06:24:42;10.52;;;3.03;;
52542;SDS011;38449;52.696;6.186;2023-03-23T06:27:09;8.50;;;3.10;;
52542;SDS011;38449;52.696;6.186;2023-03-23T06:29:36;6.70;;;3.00;;
52542;SDS011;38449;52.696;6.186;2023-03-23T06:32:10;9.63;;;3.30;;
52542;SDS011;38449;52.696;6.186;2023-03-23T06:34:44;7.50;;;2.80;;
52542;SDS011;38449;52.696;6.186;2023-03-23T06:37:23;11.52;;;3.40;;
52542;SDS011;38449;52.696;6.186;2023-03-23T06:39:50;8.32;;;3.58;;
52542;SDS011;38449;52.696;6.186;2023-03-23T06:42:23;9.50;;;2.90;;
52542;SDS011;38449;52.696;6.186;2023-03-23T06:44:50;11.90;;;3.28;;
52542;SDS011;38449;52.696;6.186;2023-03-23T06:47:17;12.82;;;4.25;;
52542;SDS011;38449;52.696;6.186;2023-03-23T06:49:43;8.75;;;2.92;;
52542;SDS011;38449;52.696;6.186;2023-03-23T06:52:10;9.45;;;3.22;;
52542;SDS011;38449;52.696;6.186;2023-03-23T06:54:37;12.50;;;3.67;;
52542;SDS011;38449;52.696;6.186;2023-03-23T06:57:04;10.32;;;3.67;;
52542;SDS011;38449;52.696;6.186;2023-03-23T06:59:36;13.13;;;3.92;;
52542;SDS011;38449;52.696;6.186;2023-03-23T07:02:03;9.68;;;3.30;;
52542;SDS011;38449;52.696;6.186;2023-03-23T07:04:29;10.98;;;3.80;;
52542;SDS011;38449;52.696;6.186;2023-03-23T07:06:56;12.07;;;4.82;;
52542;SDS011;38449;52.696;6.186;2023-03-23T07:09:22;11.85;;;4.05;;
52542;SDS011;38449;52.696;6.186;2023-03-23T07:11:48;8.70;;;3.65;;
52542;SDS011;38449;52.696;6.186;2023-03-23T07:14:17;10.98;;;3.85;;
52542;SDS011;38449;52.696;6.186;2023-03-23T07:16:43;9.45;;;3.83;;
52542;SDS011;38449;52.696;6.186;2023-03-23T07:19:10;12.60;;;3.50;;
52542;SDS011;38449;52.696;6.186;2023-03-23T07:21:37;14.50;;;3.33;;
52542;SDS011;38449;52.696;6.186;2023-03-23T07:24:03;12.27;;;3.60;;
52542;SDS011;38449;52.696;6.186;2023-03-23T07:26:29;7.60;;;3.40;;
52542;SDS011;38449;52.696;6.186;2023-03-23T07:28:57;9.48;;;3.70;;
52542;SDS011;38449;52.696;6.186;2023-03-23T07:31:23;7.75;;;3.45;;
52542;SDS011;38449;52.696;6.186;2023-03-23T07:33:50;8.85;;;3.25;;
52542;SDS011;38449;52.696;6.186;2023-03-23T07:36:17;8.55;;;3.30;;
52542;SDS011;38449;52.696;6.186;2023-03-23T07:38:43;14.23;;;3.80;;
52542;SDS011;38449;52.696;6.186;2023-03-23T07:41:09;11.38;;;3.17;;
52542;SDS011;38449;52.696;6.186;2023-03-23T07:43:43;9.68;;;3.10;;
52542;SDS011;38449;52.696;6.186;2023-03-23T07:46:09;13.93;;;3.42;;
52542;SDS011;38449;52.696;6.186;2023-03-23T07:48:37;11.48;;;3.75;;
52542;SDS011;38449;52.696;6.186;2023-03-23T07:51:03;11.48;;;4.00;;
52542;SDS011;38449;52.696;6.186;2023-03-23T07:53:32;10.25;;;3.58;;
52542;SDS011;38449;52.696;6.186;2023-03-23T07:55:59;14.10;;;4.28;;
52542;SDS011;38449;52.696;6.186;2023-03-23T07:58:26;14.25;;;4.30;;
52542;SDS011;38449;52.696;6.186;2023-03-23T08:00:56;16.02;;;3.92;;
52542;SDS011;38449;52.696;6.186;2023-03-23T08:03:24;12.45;;;4.50;;
52542;SDS011;38449;52.696;6.186;2023-03-23T08:05:50;13.48;;;4.45;;
52542;SDS011;38449;52.696;6.186;2023-03-23T08:08:17;12.90;;;4.57;;
52542;SDS011;38449;52.696;6.186;2023-03-23T08:10:44;10.27;;;4.55;;
52542;SDS011;38449;52.696;6.186;2023-03-23T08:13:10;11.23;;;3.67;;
52542;SDS011;38449;52.696;6.186;2023-03-23T08:15:37;12.80;;;3.70;;
52542;SDS011;38449;52.696;6.186;2023-03-23T08:18:07;12.02;;;4.22;;
52542;SDS011;38449;52.696;6.186;2023-03-23T08:20:33;14.15;;;3.90;;
52542;SDS011;38449;52.696;6.186;2023-03-23T08:23:01;14.02;;;4.53;;
52542;SDS011;38449;52.696;6.186;2023-03-23T08:25:29;14.10;;;4.05;;
52542;SDS011;38449;52.696;6.186;2023-03-23T08:27:59;13.20;;;3.92;;
52542;SDS011;38449;52.696;6.186;2023-03-23T08:30:27;15.13;;;4.60;;
52542;SDS011;38449;52.696;6.186;2023-03-23T08:32:56;14.80;;;4.60;;
52542;SDS011;38449;52.696;6.186;2023-03-23T08:35:26;12.00;;;5.32;;
52542;SDS011;38449;52.696;6.186;2023-03-23T08:38:01;15.88;;;4.53;;
52542;SDS011;38449;52.696;6.186;2023-03-23T08:40:27;13.88;;;5.03;;
52542;SDS011;38449;52.696;6.186;2023-03-23T08:42:55;13.48;;;4.35;;
52542;SDS011;38449;52.696;6.186;2023-03-23T08:45:22;11.98;;;4.30;;
52542;SDS011;38449;52.696;6.186;2023-03-23T08:47:50;15.35;;;4.50;;
52542;SDS011;38449;52.696;6.186;2023-03-23T08:50:22;13.90;;;3.95;;
52542;SDS011;38449;52.696;6.186;2023-03-23T08:52:58;14.45;;;4.43;;
52542;SDS011;38449;52.696;6.186;2023-03-23T08:55:30;12.82;;;4.47;;
52542;SDS011;38449;52.696;6.186;2023-03-23T08:57:57;13.52;;;4.20;;
52542;SDS011;38449;52.696;6.186;2023-03-23T09:00:30;14.95;;;4.28;;
52542;SDS011;38449;52.696;6.186;2023-03-23T09:02:56;14.15;;;4.40;;
52542;SDS011;38449;52.696;6.186;2023-03-23T09:05:26;16.27;;;3.97;;
52542;SDS011;38449;52.696;6.186;2023-03-23T09:07:56;9.07;;;3.78;;
52542;SDS011;38449;52.696;6.186;2023-03-23T09:10:25;11.25;;;4.20;;
52542;SDS011;38449;52.696;6.186;2023-03-23T09:12:53;12.40;;;4.30;;
52542;SDS011;38449;52.696;6.186;2023-03-23T09:15:20;14.60;;;4.65;;
52542;SDS011;38449;52.696;6.186;2023-03-23T09:17:48;16.10;;;4.10;;
52542;SDS011;38449;52.696;6.186;2023-03-23T09:20:17;11.27;;;4.22;;
52542;SDS011;38449;52.696;6.186;2023-03-23T09:22:47;13.63;;;4.43;;
52542;SDS011;38449;52.696;6.186;2023-03-23T09:25:15;14.88;;;5.00;;
52542;SDS011;38449;52.696;6.186;2023-03-23T09:27:49;14.73;;;4.20;;
52542;SDS011;38449;52.696;6.186;2023-03-23T09:30:23;14.82;;;4.40;;
52542;SDS011;38449;52.696;6.186;2023-03-23T09:32:52;9.57;;;3.17;;
52542;SDS011;38449;52.696;6.186;2023-03-23T09:35:19;7.53;;;3.05;;
52542;SDS011;38449;52.696;6.186;2023-03-23T09:37:47;10.82;;;3.13;;
52542;SDS011;38449;52.696;6.186;2023-03-23T09:40:23;8.02;;;3.40;;
52542;SDS011;38449;52.696;6.186;2023-03-23T09:45:37;14.23;;;4.18;;
52542;SDS011;38449;52.696;6.186;2023-03-23T09:48:23;12.65;;;4.53;;
52542;SDS011;38449;52.696;6.186;2023-03-23T09:51:11;10.30;;;3.60;;
52542;SDS011;38449;52.696;6.186;2023-03-23T09:53:50;10.27;;;3.55;;
52542;SDS011;38449;52.696;6.186;2023-03-23T09:56:20;9.23;;;3.58;;
52542;SDS011;38449;52.696;6.186;2023-03-23T09:58:53;12.93;;;3.75;;
52542;SDS011;38449;52.696;6.186;2023-03-23T10:01:26;7.50;;;4.05;;
52542;SDS011;38449;52.696;6.186;2023-03-23T10:04:02;10.13;;;3.72;;
52542;SDS011;38449;52.696;6.186;2023-03-23T10:06:39;8.88;;;3.47;;
52542;SDS011;38449;52.696;6.186;2023-03-23T10:09:14;8.52;;;3.17;;
52542;SDS011;38449;52.696;6.186;2023-03-23T10:12:00;11.02;;;3.60;;
52542;SDS011;38449;52.696;6.186;2023-03-23T10:17:33;10.88;;;2.67;;
52542;SDS011;38449;52.696;6.186;2023-03-23T10:22:42;11.02;;;3.03;;
52542;SDS011;38449;52.696;6.186;2023-03-23T10:25:21;13.02;;;2.50;;
52542;SDS011;38449;52.696;6.186;2023-03-23T10:27:56;6.25;;;3.03;;
52542;SDS011;38449;52.696;6.186;2023-03-23T10:30:31;8.27;;;2.88;;
52542;SDS011;38449;52.696;6.186;2023-03-23T10:36:31;8.88;;;2.95;;
52542;SDS011;38449;52.696;6.186;2023-03-23T10:41:42;10.30;;;3.05;;
52542;SDS011;38449;52.696;6.186;2023-03-23T10:44:15;9.20;;;3.40;;
52542;SDS011;38449;52.696;6.186;2023-03-23T10:46:47;12.13;;;3.00;;
52542;SDS011;38449;52.696;6.186;2023-03-23T10:49:53;9.27;;;2.95;;
52542;SDS011;38449;52.696;6.186;2023-03-23T10:55:04;7.03;;;2.75;;
52542;SDS011;38449;52.696;6.186;2023-03-23T10:57:34;12.38;;;3.92;;
52542;SDS011;38449;52.696;6.186;2023-03-23T11:05:40;9.35;;;3.08;;
52542;SDS011;38449;52.696;6.186;2023-03-23T11:08:17;8.68;;;2.97;;
52542;SDS011;38449;52.696;6.186;2023-03-23T11:10:53;7.38;;;2.65;;
52542;SDS011;38449;52.696;6.186;2023-03-23T11:13:21;9.45;;;3.10;;
52542;SDS011;38449;52.696;6.186;2023-03-23T11:15:52;6.38;;;2.75;;
52542;SDS011;38449;52.696;6.186;2023-03-23T11:18:20;8.35;;;2.65;;
52542;SDS011;38449;52.696;6.186;2023-03-23T11:21:02;7.75;;;2.80;;
52542;SDS011;38449;52.696;6.186;2023-03-23T11:23:32;9.02;;;2.63;;
52542;SDS011;38449;52.696;6.186;2023-03-23T11:28:55;10.90;;;3.08;;
52542;SDS011;38449;52.696;6.186;2023-03-23T11:31:30;8.18;;;2.72;;
52542;SDS011;38449;52.696;6.186;2023-03-23T11:34:04;9.27;;;2.90;;
52542;SDS011;38449;52.696;6.186;2023-03-23T11:36:58;9.88;;;3.13;;
52542;SDS011;38449;52.696;6.186;2023-03-23T11:39:29;9.93;;;3.95;;
52542;SDS011;38449;52.696;6.186;2023-03-23T11:41:58;7.82;;;2.70;;
52542;SDS011;38449;52.696;6.186;2023-03-23T11:44:34;9.90;;;2.58;;
52542;SDS011;38449;52.696;6.186;2023-03-23T11:47:15;13.98;;;3.08;;
52542;SDS011;38449;52.696;6.186;2023-03-23T11:50:12;6.72;;;3.25;;
52542;SDS011;38449;52.696;6.186;2023-03-23T11:53:00;9.70;;;3.22;;
52542;SDS011;38449;52.696;6.186;2023-03-23T11:58:11;10.75;;;3.15;;
52542;SDS011;38449;52.696;6.186;2023-03-23T12:03:23;7.55;;;2.95;;
52542;SDS011;38449;52.696;6.186;2023-03-23T12:06:13;9.50;;;3.08;;
52542;SDS011;38449;52.696;6.186;2023-03-23T12:08:50;7.07;;;2.30;;
52542;SDS011;38449;52.696;6.186;2023-03-23T12:11:39;10.98;;;3.20;;
52542;SDS011;38449;52.696;6.186;2023-03-23T12:14:18;11.77;;;2.80;;
52542;SDS011;38449;52.696;6.186;2023-03-23T12:17:13;9.70;;;2.70;;
52542;SDS011;38449;52.696;6.186;2023-03-23T12:23:07;8.55;;;2.55;;
52542;SDS011;38449;52.696;6.186;2023-03-23T12:31:13;9.52;;;2.72;;
52542;SDS011;38449;52.696;6.186;2023-03-23T12:45:05;7.93;;;2.70;;
52542;SDS011;38449;52.696;6.186;2023-03-23T12:48:05;8.48;;;2.83;;
52542;SDS011;38449;52.696;6.186;2023-03-23T12:53:26;9.43;;;3.42;;
52542;SDS011;38449;52.696;6.186;2023-03-23T13:00:14;7.32;;;2.28;;
52542;SDS011;38449;52.696;6.186;2023-03-23T13:02:22;11.27;;;2.75;;
52542;SDS011;38449;52.696;6.186;2023-03-23T13:05:01;14.90;;;2.88;;
52542;SDS011;38449;52.696;6.186;2023-03-23T13:07:35;10.02;;;2.78;;
52542;SDS011;38449;52.696;6.186;2023-03-23T13:12:46;12.10;;;3.13;;
52542;SDS011;38449;52.696;6.186;2023-03-23T13:15:23;8.93;;;2.45;;
52542;SDS011;38449;52.696;6.186;2023-03-23T13:19:03;12.27;;;3.13;;
52542;SDS011;38449;52.696;6.186;2023-03-23T13:24:34;9.13;;;2.97;;
52542;SDS011;38449;52.696;6.186;2023-03-23T13:27:04;8.85;;;2.72;;
52542;SDS011;38449;52.696;6.186;2023-03-23T13:29:34;11.68;;;3.25;;
52542;SDS011;38449;52.696;6.186;2023-03-23T13:32:04;10.48;;;3.45;;
52542;SDS011;38449;52.696;6.186;2023-03-23T13:34:47;12.48;;;3.00;;
52542;SDS011;38449;52.696;6.186;2023-03-23T13:42:22;9.18;;;2.75;;
52542;SDS011;38449;52.696;6.186;2023-03-23T13:49:50;11.75;;;3.03;;
52542;SDS011;38449;52.696;6.186;2023-03-23T13:52:24;11.90;;;3.33;;
52542;SDS011;38449;52.696;6.186;2023-03-23T14:00:35;8.80;;;2.60;;
52542;SDS011;38449;52.696;6.186;2023-03-23T14:03:13;10.82;;;3.05;;
52542;SDS011;38449;52.696;6.186;2023-03-23T14:06:12;9.63;;;3.03;;
52542;SDS011;38449;52.696;6.186;2023-03-23T14:08:41;8.52;;;2.97;;
52542;SDS011;38449;52.696;6.186;2023-03-23T14:11:17;9.23;;;2.80;;
52542;SDS011;38449;52.696;6.186;2023-03-23T14:16:39;9.07;;;3.22;;
52542;SDS011;38449;52.696;6.186;2023-03-23T14:19:15;8.90;;;2.53;;
52542;SDS011;38449;52.696;6.186;2023-03-23T14:22:01;13.40;;;3.15;;
52542;SDS011;38449;52.696;6.186;2023-03-23T14:24:29;10.65;;;2.70;;
52542;SDS011;38449;52.696;6.186;2023-03-23T14:27:09;8.18;;;2.92;;
52542;SDS011;38449;52.696;6.186;2023-03-23T14:29:35;9.43;;;3.35;;
52542;SDS011;38449;52.696;6.186;2023-03-23T14:32:05;6.57;;;2.95;;
52542;SDS011;38449;52.696;6.186;2023-03-23T14:34:33;10.90;;;2.97;;
52542;SDS011;38449;52.696;6.186;2023-03-23T14:37:01;14.63;;;3.40;;
52542;SDS011;38449;52.696;6.186;2023-03-23T14:39:30;12.13;;;3.33;;
52542;SDS011;38449;52.696;6.186;2023-03-23T14:42:10;8.55;;;2.80;;
52542;SDS011;38449;52.696;6.186;2023-03-23T14:44:47;10.27;;;2.90;;
52542;SDS011;38449;52.696;6.186;2023-03-23T14:47:20;13.60;;;4.15;;
52542;SDS011;38449;52.696;6.186;2023-03-23T14:49:54;11.15;;;3.92;;
52542;SDS011;38449;52.696;6.186;2023-03-23T14:52:23;12.80;;;3.70;;
52542;SDS011;38449;52.696;6.186;2023-03-23T14:54:51;12.50;;;3.80;;
52542;SDS011;38449;52.696;6.186;2023-03-23T14:59:49;11.15;;;3.50;;
52542;SDS011;38449;52.696;6.186;2023-03-23T15:02:25;12.20;;;3.53;;
52542;SDS011;38449;52.696;6.186;2023-03-23T15:05:02;7.93;;;2.53;;
52542;SDS011;38449;52.696;6.186;2023-03-23T15:07:33;10.52;;;2.97;;
52542;SDS011;38449;52.696;6.186;2023-03-23T15:10:05;10.73;;;3.10;;
52542;SDS011;38449;52.696;6.186;2023-03-23T15:12:39;10.40;;;2.75;;
52542;SDS011;38449;52.696;6.186;2023-03-23T15:15:29;8.25;;;2.55;;
52542;SDS011;38449;52.696;6.186;2023-03-23T15:17:57;8.07;;;2.67;;
52542;SDS011;38449;52.696;6.186;2023-03-23T15:20:30;9.15;;;2.97;;
52542;SDS011;38449;52.696;6.186;2023-03-23T15:23:21;8.60;;;3.13;;
52542;SDS011;38449;52.696;6.186;2023-03-23T15:25:53;10.30;;;3.08;;
52542;SDS011;38449;52.696;6.186;2023-03-23T15:28:22;10.32;;;3.70;;
52542;SDS011;38449;52.696;6.186;2023-03-23T15:31:03;10.10;;;3.22;;
52542;SDS011;38449;52.696;6.186;2023-03-23T15:33:38;12.77;;;3.45;;
52542;SDS011;38449;52.696;6.186;2023-03-23T15:36:07;11.23;;;2.60;;
52542;SDS011;38449;52.696;6.186;2023-03-23T15:38:43;8.73;;;3.10;;
52542;SDS011;38449;52.696;6.186;2023-03-23T15:44:28;13.10;;;3.35;;
52542;SDS011;38449;52.696;6.186;2023-03-23T15:47:33;7.65;;;2.70;;
52542;SDS011;38449;52.696;6.186;2023-03-23T15:50:08;11.50;;;2.40;;
52542;SDS011;38449;52.696;6.186;2023-03-23T15:52:43;11.20;;;2.58;;
52542;SDS011;38449;52.696;6.186;2023-03-23T15:57:47;14.00;;;3.33;;
52542;SDS011;38449;52.696;6.186;2023-03-23T16:00:19;8.05;;;2.80;;
52542;SDS011;38449;52.696;6.186;2023-03-23T16:02:46;12.07;;;3.00;;
52542;SDS011;38449;52.696;6.186;2023-03-23T16:05:20;10.43;;;2.55;;
52542;SDS011;38449;52.696;6.186;2023-03-23T16:07:46;8.25;;;2.97;;
52542;SDS011;38449;52.696;6.186;2023-03-23T16:10:17;12.50;;;2.70;;
52542;SDS011;38449;52.696;6.186;2023-03-23T16:12:46;8.55;;;2.67;;
52542;SDS011;38449;52.696;6.186;2023-03-23T16:15:13;9.60;;;2.80;;
52542;SDS011;38449;52.696;6.186;2023-03-23T16:17:40;9.77;;;2.90;;
52542;SDS011;38449;52.696;6.186;2023-03-23T16:20:17;8.20;;;3.05;;
52542;SDS011;38449;52.696;6.186;2023-03-23T16:22:46;8.00;;;2.58;;
52542;SDS011;38449;52.696;6.186;2023-03-23T16:25:13;5.38;;;1.83;;
52542;SDS011;38449;52.696;6.186;2023-03-23T16:27:41;5.90;;;2.40;;
52542;SDS011;38449;52.696;6.186;2023-03-23T16:30:12;4.60;;;1.63;;
52542;SDS011;38449;52.696;6.186;2023-03-23T16:32:45;4.85;;;1.88;;
52542;SDS011;38449;52.696;6.186;2023-03-23T16:35:19;3.88;;;1.30;;
52542;SDS011;38449;52.696;6.186;2023-03-23T16:37:47;3.95;;;1.58;;
52542;SDS011;38449;52.696;6.186;2023-03-23T16:40:20;3.45;;;1.40;;
52542;SDS011;38449;52.696;6.186;2023-03-23T16:42:53;5.80;;;1.42;;
52542;SDS011;38449;52.696;6.186;2023-03-23T16:45:26;6.95;;;1.92;;
52542;SDS011;38449;52.696;6.186;2023-03-23T16:47:52;5.25;;;1.80;;
52542;SDS011;38449;52.696;6.186;2023-03-23T16:50:22;5.75;;;1.92;;
52542;SDS011;38449;52.696;6.186;2023-03-23T16:52:48;4.55;;;2.15;;
52542;SDS011;38449;52.696;6.186;2023-03-23T16:55:15;6.45;;;2.00;;